Time;durP1;ratioP1;P1;durP2;ratioP2;P2;SDS_P1;SDS_P2;PMS_P1;PMS_P2;Temp;Humidity;BMP_temperature;BMP_pressure;BME280_temperature;BME280_humidity;BME280_pressure;Samples;Min_cycle;Max_cycle;Signal;HPM_P1;HPM_P2
2021/05/07 00:01:32;;;;;;;6.83;6.17;;;6.00;99.90;;;;;;488059;242;27952;-70
2021/05/07 00:03:33;;;;;;;7.40;6.70;;;6.00;99.90;;;;;;488056;242;27917;-70
2021/05/07 00:05:35;;;;;;;8.00;7.00;;;6.10;99.90;;;;;;488042;242;27726;-71
2021/05/07 00:07:36;;;;;;;7.60;6.40;;;6.10;99.90;;;;;;488045;242;27470;-72
2021/05/07 00:09:37;;;;;;;7.97;6.60;;;6.00;99.90;;;;;;488042;242;28877;-70
2021/05/07 00:11:38;;;;;;;7.10;6.40;;;6.00;99.90;;;;;;488053;242;28523;-71
2021/05/07 00:13:40;;;;;;;6.77;6.10;;;6.00;99.90;;;;;;488033;242;28287;-70
2021/05/07 00:15:41;;;;;;;7.18;6.47;;;5.90;99.90;;;;;;488050;242;28646;-71
2021/05/07 00:17:42;;;;;;;7.47;6.50;;;5.90;99.90;;;;;;488060;242;27361;-71
2021/05/07 00:19:43;;;;;;;7.90;7.10;;;5.90;99.90;;;;;;488050;242;28330;-70
2021/05/07 00:21:45;;;;;;;7.70;6.90;;;5.90;99.90;;;;;;488060;242;27503;-71
2021/05/07 00:23:46;;;;;;;8.03;7.20;;;5.90;99.90;;;;;;488044;242;27960;-71
2021/05/07 00:25:49;;;;;;;8.97;6.73;;;5.90;99.90;;;;;;488047;242;28053;-70
2021/05/07 00:27:48;;;;;;;6.95;6.18;;;5.80;99.90;;;;;;488062;242;28696;-71
2021/05/07 00:29:50;;;;;;;7.75;6.95;;;5.80;99.90;;;;;;488047;242;27451;-70
2021/05/07 00:31:51;;;;;;;7.50;6.70;;;5.90;99.90;;;;;;488045;242;27381;-71
2021/05/07 00:33:52;;;;;;;7.20;6.00;;;5.80;99.90;;;;;;488045;242;29223;-70
2021/05/07 00:35:53;;;;;;;6.45;5.85;;;5.90;99.90;;;;;;488030;242;28387;-71
2021/05/07 00:37:55;;;;;;;7.60;6.37;;;5.90;99.90;;;;;;487581;242;28036;-70
2021/05/07 00:39:56;;;;;;;7.67;6.90;;;5.90;99.90;;;;;;487509;242;27459;-70
2021/05/07 00:42:06;;;;;;;9.82;7.00;;;5.90;99.90;;;;;;487486;242;28708;-71
2021/05/07 00:44:01;;;;;;;6.53;5.93;;;5.80;99.90;;;;;;487632;241;27911;-70
2021/05/07 00:46:03;;;;;;;6.50;5.90;;;5.90;99.90;;;;;;487469;242;28302;-70
2021/05/07 00:48:07;;;;;;;6.40;5.80;;;5.90;99.90;;;;;;487484;242;28807;-70
2021/05/07 00:50:08;;;;;;;5.57;5.07;;;5.80;99.90;;;;;;487483;242;28227;-70
2021/05/07 00:52:10;;;;;;;7.40;6.33;;;5.90;99.90;;;;;;487484;242;27448;-73
2021/05/07 00:54:10;;;;;;;6.70;6.00;;;5.90;99.90;;;;;;487465;242;28688;-70
2021/05/07 00:56:12;;;;;;;7.73;6.97;;;5.90;99.90;;;;;;487449;242;27978;-71
2021/05/07 00:58:13;;;;;;;7.90;6.40;;;5.90;99.90;;;;;;487457;242;28693;-71
2021/05/07 01:00:14;;;;;;;5.97;5.33;;;5.90;99.90;;;;;;487444;242;27597;-70
2021/05/07 01:02:15;;;;;;;5.40;4.80;;;5.80;99.90;;;;;;487462;242;28187;-71
2021/05/07 01:04:17;;;;;;;6.37;5.77;;;5.90;99.90;;;;;;487491;242;27360;-70
2021/05/07 01:06:18;;;;;;;7.40;6.00;;;5.90;99.90;;;;;;487481;242;28334;-71
2021/05/07 01:08:20;;;;;;;6.80;5.35;;;5.80;99.90;;;;;;487498;242;27831;-70
2021/05/07 01:10:20;;;;;;;6.25;5.65;;;5.90;99.90;;;;;;487496;242;27369;-70
2021/05/07 01:12:22;;;;;;;5.67;5.17;;;5.80;99.90;;;;;;487490;242;27357;-70
2021/05/07 01:14:23;;;;;;;7.37;6.60;;;5.80;99.90;;;;;;487482;242;27459;-70
2021/05/07 01:16:24;;;;;;;6.83;5.77;;;5.80;99.90;;;;;;487484;242;27364;-71
2021/05/07 01:18:26;;;;;;;8.50;6.90;;;5.80;99.90;;;;;;487487;242;28693;-70
2021/05/07 01:20:27;;;;;;;7.57;6.33;;;5.80;99.90;;;;;;487509;242;28354;-71
2021/05/07 01:22:28;;;;;;;7.10;6.00;;;5.80;99.90;;;;;;487482;242;28121;-70
2021/05/07 01:24:29;;;;;;;8.40;6.27;;;5.80;99.90;;;;;;487498;242;27811;-70
2021/05/07 01:26:30;;;;;;;5.97;5.37;;;5.80;99.90;;;;;;487481;242;27996;-71
2021/05/07 01:28:33;;;;;;;7.10;6.30;;;5.80;99.90;;;;;;487490;240;28281;-70
2021/05/07 01:30:33;;;;;;;5.37;4.90;;;5.80;99.90;;;;;;487487;242;27436;-70
2021/05/07 01:32:34;;;;;;;7.93;6.50;;;5.80;99.90;;;;;;487497;242;27351;-70
2021/05/07 01:34:35;;;;;;;6.33;5.67;;;5.80;99.90;;;;;;487485;242;28028;-71
2021/05/07 01:36:37;;;;;;;7.50;5.80;;;5.80;99.90;;;;;;487484;242;27916;-72
2021/05/07 01:38:38;;;;;;;6.70;5.63;;;5.80;99.90;;;;;;487508;242;27361;-70
2021/05/07 01:40:39;;;;;;;5.90;5.10;;;5.80;99.90;;;;;;487488;242;28696;-71
2021/05/07 01:42:40;;;;;;;7.20;6.47;;;5.70;99.90;;;;;;487496;242;28031;-70
2021/05/07 01:44:42;;;;;;;5.30;4.80;;;5.70;99.90;;;;;;487475;242;27827;-70
2021/05/07 01:46:43;;;;;;;9.20;5.68;;;5.70;99.90;;;;;;487469;242;28375;-72
2021/05/07 01:48:44;;;;;;;5.68;5.18;;;5.60;99.90;;;;;;487470;242;27878;-70
2021/05/07 01:50:45;;;;;;;6.10;5.20;;;5.60;99.90;;;;;;487492;242;27352;-70
2021/05/07 01:52:47;;;;;;;6.40;5.80;;;5.60;99.90;;;;;;487490;242;27354;-70
2021/05/07 01:54:48;;;;;;;5.82;5.22;;;5.60;99.90;;;;;;487496;242;27356;-70
2021/05/07 01:56:49;;;;;;;6.45;5.75;;;5.60;99.90;;;;;;487480;242;27398;-72
2021/05/07 01:58:50;;;;;;;7.70;6.20;;;5.60;99.90;;;;;;487492;242;27917;-70
2021/05/07 02:00:52;;;;;;;7.07;6.25;;;5.60;99.90;;;;;;487473;242;28917;-71
2021/05/07 02:02:53;;;;;;;8.63;7.20;;;5.60;99.90;;;;;;487506;242;27815;-70
2021/05/07 02:04:54;;;;;;;8.05;6.97;;;5.50;99.90;;;;;;487482;242;27361;-71
2021/05/07 02:06:55;;;;;;;8.25;6.60;;;5.50;99.90;;;;;;487493;242;27381;-72
2021/05/07 02:08:57;;;;;;;8.40;7.30;;;5.50;99.90;;;;;;487474;242;27371;-70
2021/05/07 02:10:58;;;;;;;9.10;7.65;;;5.40;99.90;;;;;;487452;242;28689;-70
2021/05/07 02:12:59;;;;;;;6.82;6.12;;;5.40;99.90;;;;;;487467;242;27356;-70
2021/05/07 02:15:00;;;;;;;9.60;7.33;;;5.40;99.90;;;;;;487481;242;27888;-70
2021/05/07 02:17:02;;;;;;;8.63;6.45;;;5.40;99.90;;;;;;487467;242;29164;-73
2021/05/07 02:19:03;;;;;;;8.60;7.30;;;5.50;99.90;;;;;;487476;242;27356;-71
2021/05/07 02:21:04;;;;;;;8.82;7.15;;;5.50;99.90;;;;;;487488;242;27381;-71
2021/05/07 02:23:06;;;;;;;7.77;6.93;;;5.40;99.90;;;;;;487485;242;27367;-70
2021/05/07 02:25:07;;;;;;;8.55;6.80;;;5.50;99.90;;;;;;487470;242;28685;-71
2021/05/07 02:27:08;;;;;;;8.20;7.12;;;5.50;99.90;;;;;;487471;242;27361;-73
2021/05/07 02:29:09;;;;;;;8.63;7.45;;;5.50;99.90;;;;;;487470;242;27360;-71
2021/05/07 02:31:11;;;;;;;8.15;7.35;;;5.50;99.90;;;;;;487472;242;27837;-71
2021/05/07 02:33:12;;;;;;;11.75;8.25;;;5.50;99.90;;;;;;487493;242;27847;-70
2021/05/07 02:35:13;;;;;;;9.27;7.35;;;5.40;99.90;;;;;;487474;242;27364;-71
2021/05/07 02:37:14;;;;;;;9.23;6.93;;;5.40;99.90;;;;;;487524;242;27380;-70
2021/05/07 02:39:16;;;;;;;7.03;6.32;;;5.40;99.90;;;;;;487515;243;27447;-71
2021/05/07 02:41:17;;;;;;;7.80;6.72;;;5.40;99.90;;;;;;487493;242;27376;-71
2021/05/07 02:43:18;;;;;;;9.10;6.75;;;5.40;99.90;;;;;;487505;242;27813;-70
2021/05/07 02:45:19;;;;;;;8.70;6.55;;;5.40;99.90;;;;;;487499;242;27836;-70
2021/05/07 02:47:21;;;;;;;11.23;7.12;;;5.40;99.90;;;;;;487471;242;27357;-71
2021/05/07 02:49:22;;;;;;;9.25;7.85;;;5.30;99.90;;;;;;487499;242;27361;-70
2021/05/07 02:51:23;;;;;;;9.90;7.15;;;5.30;99.90;;;;;;487503;242;27447;-72
2021/05/07 02:53:24;;;;;;;10.10;8.35;;;5.30;99.90;;;;;;487516;242;27385;-70
2021/05/07 02:55:26;;;;;;;10.18;7.53;;;5.30;99.90;;;;;;487496;242;27432;-71
2021/05/07 02:57:27;;;;;;;8.63;7.10;;;5.30;99.90;;;;;;487497;242;28027;-72
2021/05/07 02:59:28;;;;;;;11.20;8.25;;;5.30;99.90;;;;;;487493;242;27420;-70
2021/05/07 03:01:29;;;;;;;10.55;7.20;;;5.30;99.90;;;;;;487492;242;27364;-70
2021/05/07 03:03:31;;;;;;;8.25;7.30;;;5.30;99.90;;;;;;487515;242;27356;-71
2021/05/07 03:05:32;;;;;;;9.68;7.65;;;5.30;99.90;;;;;;487500;242;27494;-71
2021/05/07 03:07:33;;;;;;;10.23;7.40;;;5.30;99.90;;;;;;487495;242;27381;-73
2021/05/07 03:09:34;;;;;;;11.48;8.57;;;5.20;99.90;;;;;;487491;242;29251;-72
2021/05/07 03:11:36;;;;;;;8.57;7.50;;;5.20;99.90;;;;;;487514;242;27864;-72
2021/05/07 03:13:37;;;;;;;9.95;7.62;;;5.20;99.90;;;;;;487500;242;27823;-71
2021/05/07 03:15:38;;;;;;;8.40;6.93;;;5.20;99.90;;;;;;487500;242;27435;-70
2021/05/07 03:17:39;;;;;;;9.40;7.70;;;5.10;99.90;;;;;;487505;242;27436;-70
2021/05/07 03:19:41;;;;;;;12.00;8.03;;;5.10;99.90;;;;;;487520;243;27439;-71
2021/05/07 03:21:42;;;;;;;10.60;8.27;;;5.10;99.90;;;;;;487513;242;28412;-71
2021/05/07 03:23:43;;;;;;;10.13;7.32;;;5.10;99.90;;;;;;487482;242;27372;-70
2021/05/07 03:25:44;;;;;;;8.60;7.37;;;5.20;99.90;;;;;;487478;242;27970;-70
2021/05/07 03:27:46;;;;;;;10.48;8.25;;;5.20;99.90;;;;;;487472;242;27780;-70
2021/05/07 03:29:47;;;;;;;10.10;8.77;;;5.20;99.90;;;;;;487495;242;27437;-70
2021/05/07 03:31:48;;;;;;;11.12;8.88;;;5.20;99.90;;;;;;487494;242;27371;-72
2021/05/07 03:33:50;;;;;;;9.18;7.60;;;5.20;99.90;;;;;;487500;242;27476;-70
2021/05/07 03:35:51;;;;;;;12.10;8.88;;;5.20;99.90;;;;;;487482;242;27363;-70
2021/05/07 03:37:52;;;;;;;8.70;7.22;;;5.30;99.90;;;;;;487481;242;27374;-72
2021/05/07 03:39:53;;;;;;;8.18;7.32;;;5.30;99.90;;;;;;487483;242;27360;-70
2021/05/07 03:41:55;;;;;;;10.25;7.70;;;5.30;99.90;;;;;;487498;242;27380;-71
2021/05/07 03:43:56;;;;;;;9.15;7.75;;;5.30;99.90;;;;;;487507;242;27824;-70
2021/05/07 03:45:57;;;;;;;10.05;7.90;;;5.30;99.90;;;;;;487487;242;27447;-72
2021/05/07 03:47:58;;;;;;;9.15;7.80;;;5.30;99.90;;;;;;487501;242;27388;-70
2021/05/07 03:50:00;;;;;;;10.38;8.48;;;5.30;99.90;;;;;;487486;242;27353;-71
2021/05/07 03:52:01;;;;;;;9.63;8.02;;;5.20;99.90;;;;;;487486;242;27364;-71
2021/05/07 03:54:02;;;;;;;14.32;9.55;;;5.20;99.90;;;;;;487486;242;27432;-70
2021/05/07 03:56:03;;;;;;;10.68;8.02;;;5.20;99.90;;;;;;487480;242;27832;-70
2021/05/07 03:58:05;;;;;;;12.70;9.50;;;5.20;99.90;;;;;;487491;242;28039;-70
2021/05/07 04:00:06;;;;;;;11.73;9.43;;;5.10;99.90;;;;;;487491;242;27394;-71
2021/05/07 04:02:07;;;;;;;10.85;8.07;;;5.10;99.90;;;;;;487485;242;27364;-71
2021/05/07 04:04:09;;;;;;;12.50;9.00;;;5.10;99.90;;;;;;487486;242;27359;-70
2021/05/07 04:06:15;;;;;;;12.02;9.00;;;5.10;99.90;;;;;;487472;242;27367;-71
2021/05/07 04:08:15;;;;;;;12.80;9.38;;;5.10;99.90;;;;;;487576;242;27900;-70
2021/05/07 04:10:19;;;;;;;11.30;9.15;;;5.10;99.90;;;;;;487523;242;27368;-70
2021/05/07 04:12:20;;;;;;;10.65;8.60;;;5.10;99.90;;;;;;487596;241;27844;-70
2021/05/07 04:14:18;;;;;;;13.00;8.60;;;5.10;99.90;;;;;;487537;242;27848;-71
2021/05/07 04:16:19;;;;;;;12.35;8.70;;;5.10;99.90;;;;;;487483;242;27352;-70
2021/05/07 04:18:20;;;;;;;12.07;9.02;;;5.10;99.90;;;;;;487483;242;27341;-70
2021/05/07 04:20:22;;;;;;;11.27;8.77;;;5.20;99.90;;;;;;487498;242;27450;-73
2021/05/07 04:22:23;;;;;;;11.93;8.25;;;5.10;99.90;;;;;;487494;242;27451;-70
2021/05/07 04:24:24;;;;;;;9.73;8.40;;;5.20;99.90;;;;;;487487;242;27820;-71
2021/05/07 04:26:25;;;;;;;10.43;8.23;;;5.20;99.90;;;;;;487485;242;27811;-70
2021/05/07 04:28:27;;;;;;;9.27;8.02;;;5.20;99.90;;;;;;487498;242;27356;-71
2021/05/07 04:30:28;;;;;;;9.68;7.80;;;5.20;99.90;;;;;;487492;242;27358;-72
2021/05/07 04:32:29;;;;;;;9.75;8.15;;;5.20;99.90;;;;;;487478;242;27419;-71
2021/05/07 04:34:30;;;;;;;9.30;8.02;;;5.30;99.90;;;;;;487493;242;27451;-71
2021/05/07 04:36:32;;;;;;;8.32;7.45;;;5.30;99.90;;;;;;487482;242;27398;-70
2021/05/07 04:38:33;;;;;;;8.27;7.35;;;5.20;99.90;;;;;;487481;242;27832;-70
2021/05/07 04:40:34;;;;;;;10.15;7.68;;;5.20;99.90;;;;;;487474;242;27859;-71
2021/05/07 04:42:35;;;;;;;9.90;8.38;;;5.20;99.90;;;;;;487473;242;27373;-70
2021/05/07 04:44:37;;;;;;;9.82;8.40;;;5.20;99.90;;;;;;487480;242;27373;-71
2021/05/07 04:46:38;;;;;;;9.50;8.45;;;5.20;99.90;;;;;;487512;242;27427;-70
2021/05/07 04:48:39;;;;;;;8.15;7.28;;;5.20;99.90;;;;;;487496;242;27439;-70
2021/05/07 04:50:40;;;;;;;8.07;7.25;;;5.30;99.90;;;;;;487478;242;28003;-73
2021/05/07 04:52:42;;;;;;;8.13;6.80;;;5.30;99.90;;;;;;487497;242;27898;-70
2021/05/07 04:54:43;;;;;;;8.48;6.87;;;5.30;99.90;;;;;;487483;242;27372;-70
2021/05/07 04:56:44;;;;;;;10.10;7.45;;;5.30;99.90;;;;;;487488;242;27353;-70
2021/05/07 04:58:45;;;;;;;10.52;6.82;;;5.30;99.90;;;;;;487480;242;27475;-70
2021/05/07 05:00:47;;;;;;;8.10;7.03;;;5.30;99.90;;;;;;487495;242;27475;-72
2021/05/07 05:02:48;;;;;;;8.20;7.10;;;5.30;99.90;;;;;;487491;242;27791;-70
2021/05/07 05:04:49;;;;;;;8.50;7.60;;;5.40;99.90;;;;;;487487;242;27907;-71
2021/05/07 05:06:50;;;;;;;9.80;7.40;;;5.40;99.90;;;;;;487476;242;27352;-70
2021/05/07 05:08:52;;;;;;;7.10;6.22;;;5.40;99.90;;;;;;487485;242;27439;-71
2021/05/07 05:10:53;;;;;;;8.02;7.10;;;5.30;99.90;;;;;;487487;242;27353;-71
2021/05/07 05:12:54;;;;;;;11.63;8.03;;;5.30;99.90;;;;;;487510;242;27427;-70
2021/05/07 05:14:55;;;;;;;10.20;6.87;;;5.20;99.90;;;;;;487498;242;28798;-71
2021/05/07 05:16:57;;;;;;;8.35;7.45;;;5.20;99.90;;;;;;487496;242;27926;-71
2021/05/07 05:18:58;;;;;;;10.02;6.95;;;5.20;99.90;;;;;;487491;242;27824;-70
2021/05/07 05:20:59;;;;;;;8.00;7.20;;;5.20;99.90;;;;;;487482;242;27357;-71
2021/05/07 05:23:01;;;;;;;7.80;7.10;;;5.20;99.90;;;;;;487493;242;27340;-71
2021/05/07 05:25:04;;;;;;;7.80;6.78;;;5.10;99.90;;;;;;487475;244;27439;-71
2021/05/07 05:27:03;;;;;;;7.90;6.37;;;5.10;99.90;;;;;;487534;242;27361;-70
2021/05/07 05:29:04;;;;;;;6.68;6.00;;;5.10;99.90;;;;;;487489;242;27364;-71
2021/05/07 05:31:06;;;;;;;8.32;7.40;;;5.20;99.90;;;;;;487487;242;27997;-70
2021/05/07 05:33:07;;;;;;;9.27;8.03;;;5.20;99.90;;;;;;487491;242;27905;-70
2021/05/07 05:35:08;;;;;;;8.90;7.65;;;5.20;99.90;;;;;;487489;242;27948;-72
2021/05/07 05:37:11;;;;;;;10.60;7.85;;;5.20;99.90;;;;;;487481;242;27368;-71
2021/05/07 05:39:11;;;;;;;9.70;7.60;;;5.20;99.90;;;;;;487486;242;27364;-72
2021/05/07 05:41:12;;;;;;;8.57;7.68;;;5.30;99.90;;;;;;487489;242;27814;-71
2021/05/07 05:43:14;;;;;;;10.30;7.33;;;5.40;99.90;;;;;;487506;242;27357;-71
2021/05/07 05:45:14;;;;;;;8.95;8.00;;;5.50;99.90;;;;;;487493;242;27833;-71
2021/05/07 05:47:16;;;;;;;8.27;7.47;;;5.50;99.90;;;;;;487485;242;27953;-70
2021/05/07 05:49:17;;;;;;;8.43;7.27;;;5.50;99.90;;;;;;487484;242;28058;-71
2021/05/07 05:51:18;;;;;;;9.93;7.87;;;5.60;99.90;;;;;;487478;242;29419;-70
2021/05/07 05:53:19;;;;;;;11.07;9.70;;;5.60;99.90;;;;;;487483;242;29075;-70
2021/05/07 05:55:21;;;;;;;11.32;9.10;;;5.50;99.90;;;;;;487489;242;28157;-72
2021/05/07 05:57:22;;;;;;;10.00;8.40;;;5.50;99.90;;;;;;487494;242;27357;-71
2021/05/07 05:59:23;;;;;;;12.27;9.27;;;5.50;99.90;;;;;;487500;242;28780;-70
2021/05/07 06:01:24;;;;;;;12.75;9.57;;;5.50;99.90;;;;;;487478;242;28505;-71
2021/05/07 06:03:26;;;;;;;11.43;8.90;;;5.50;99.90;;;;;;487494;242;27476;-70
2021/05/07 06:05:27;;;;;;;13.13;9.73;;;5.50;99.90;;;;;;487487;242;27959;-71
2021/05/07 06:07:28;;;;;;;11.50;9.25;;;5.40;99.90;;;;;;487472;242;27356;-70
2021/05/07 06:09:29;;;;;;;9.97;8.97;;;5.40;99.90;;;;;;487478;242;27376;-71
2021/05/07 06:11:31;;;;;;;13.27;10.30;;;5.30;99.90;;;;;;487490;242;28359;-70
2021/05/07 06:13:32;;;;;;;10.85;8.52;;;5.40;99.90;;;;;;487502;242;28686;-71
2021/05/07 06:15:33;;;;;;;12.25;9.80;;;5.50;99.90;;;;;;487507;242;27446;-72
2021/05/07 06:17:34;;;;;;;12.32;9.48;;;5.50;99.90;;;;;;487512;242;27823;-70
2021/05/07 06:19:36;;;;;;;13.02;10.90;;;5.50;99.90;;;;;;487505;242;27857;-71
2021/05/07 06:21:37;;;;;;;13.95;10.30;;;5.60;99.90;;;;;;487507;242;27360;-70
2021/05/07 06:23:38;;;;;;;14.87;10.35;;;5.60;99.90;;;;;;487498;242;27468;-70
2021/05/07 06:25:40;;;;;;;12.80;10.40;;;5.60;99.90;;;;;;487506;242;27439;-72
2021/05/07 06:27:41;;;;;;;14.43;10.50;;;5.60;99.90;;;;;;487501;242;27719;-70
2021/05/07 06:29:42;;;;;;;14.63;10.70;;;5.70;99.90;;;;;;487505;242;27929;-71
2021/05/07 06:31:43;;;;;;;19.10;11.25;;;5.80;99.90;;;;;;487493;242;28869;-70
2021/05/07 06:33:45;;;;;;;14.77;11.43;;;5.80;99.90;;;;;;487504;242;27357;-71
2021/05/07 06:35:46;;;;;;;13.88;10.50;;;5.70;99.90;;;;;;487494;242;27367;-71
2021/05/07 06:37:47;;;;;;;13.80;11.45;;;5.60;99.90;;;;;;487497;242;27361;-70
2021/05/07 06:39:48;;;;;;;15.98;11.75;;;5.50;99.90;;;;;;487510;242;27824;-71
2021/05/07 06:41:50;;;;;;;14.40;11.40;;;5.50;99.90;;;;;;487491;242;27359;-70
2021/05/07 06:43:51;;;;;;;12.85;10.93;;;5.60;99.90;;;;;;487496;242;28681;-71
2021/05/07 06:45:52;;;;;;;16.35;10.95;;;5.70;99.90;;;;;;487496;242;27373;-72
2021/05/07 06:47:53;;;;;;;12.90;10.53;;;5.70;99.90;;;;;;487491;242;27361;-71
2021/05/07 06:49:55;;;;;;;14.07;10.80;;;5.80;99.90;;;;;;487488;242;28661;-70
2021/05/07 06:51:56;;;;;;;13.30;10.57;;;5.80;99.90;;;;;;487495;242;28203;-70
2021/05/07 06:53:57;;;;;;;15.80;11.53;;;5.70;99.90;;;;;;487498;242;29260;-71
2021/05/07 06:55:58;;;;;;;13.60;11.15;;;5.80;99.90;;;;;;487488;242;28174;-72
2021/05/07 06:58:00;;;;;;;13.93;10.97;;;5.80;99.90;;;;;;487511;242;27356;-70
2021/05/07 07:00:01;;;;;;;15.15;10.90;;;5.90;99.90;;;;;;487495;242;28511;-71
2021/05/07 07:02:02;;;;;;;13.00;10.40;;;6.10;99.90;;;;;;487501;242;27363;-70
2021/05/07 07:04:04;;;;;;;16.92;11.00;;;6.10;99.90;;;;;;487498;242;28264;-70
2021/05/07 07:06:05;;;;;;;14.82;10.20;;;6.10;99.90;;;;;;487503;242;27953;-72
2021/05/07 07:08:06;;;;;;;11.90;9.60;;;6.10;99.90;;;;;;487514;242;27416;-71
2021/05/07 07:10:07;;;;;;;12.63;10.50;;;6.20;99.90;;;;;;487492;242;28398;-71
2021/05/07 07:12:08;;;;;;;11.87;9.43;;;6.30;99.90;;;;;;487500;242;27352;-70
2021/05/07 07:14:10;;;;;;;9.67;8.67;;;6.40;99.90;;;;;;487499;242;27956;-70
2021/05/07 07:16:11;;;;;;;13.40;9.33;;;6.30;99.90;;;;;;487502;242;28696;-72
2021/05/07 07:18:12;;;;;;;11.47;8.97;;;6.40;99.90;;;;;;487498;242;28448;-71
2021/05/07 07:20:14;;;;;;;11.60;8.50;;;6.30;99.90;;;;;;487502;242;28459;-72
2021/05/07 07:22:16;;;;;;;11.07;9.20;;;6.40;99.90;;;;;;487504;242;28250;-71
2021/05/07 07:24:16;;;;;;;16.03;8.60;;;6.40;99.90;;;;;;487520;242;28422;-70
2021/05/07 07:26:17;;;;;;;13.30;10.23;;;6.40;99.90;;;;;;487484;242;27836;-73
2021/05/07 07:28:19;;;;;;;10.60;8.80;;;6.50;99.90;;;;;;487490;240;27671;-71
2021/05/07 07:30:20;;;;;;;12.60;9.70;;;6.50;99.90;;;;;;487499;242;28500;-71
2021/05/07 07:32:21;;;;;;;11.40;9.30;;;6.50;99.90;;;;;;487496;242;28026;-71
2021/05/07 07:34:22;;;;;;;10.93;8.15;;;6.50;99.90;;;;;;487488;242;28269;-71
2021/05/07 07:36:24;;;;;;;11.93;8.87;;;6.40;99.90;;;;;;487497;242;27371;-73
2021/05/07 07:38:25;;;;;;;10.63;9.20;;;6.40;99.90;;;;;;487496;242;27545;-71
2021/05/07 07:40:26;;;;;;;12.13;8.50;;;6.40;99.90;;;;;;487498;242;28383;-71
2021/05/07 07:42:27;;;;;;;10.77;7.97;;;6.50;99.90;;;;;;487477;242;28126;-71
2021/05/07 07:44:29;;;;;;;10.33;7.20;;;6.60;99.90;;;;;;487502;242;28255;-71
2021/05/07 07:46:30;;;;;;;12.20;9.03;;;6.60;99.90;;;;;;487495;242;27787;-72
2021/05/07 07:48:31;;;;;;;13.13;7.60;;;6.70;99.90;;;;;;487477;242;27760;-71
2021/05/07 07:50:32;;;;;;;9.93;8.40;;;6.60;99.90;;;;;;487495;242;27762;-71
2021/05/07 07:52:34;;;;;;;11.60;7.93;;;6.70;99.90;;;;;;487502;242;27707;-71
2021/05/07 07:54:35;;;;;;;8.83;7.53;;;6.70;99.90;;;;;;487491;242;27746;-71
2021/05/07 07:56:36;;;;;;;9.60;8.23;;;6.70;99.90;;;;;;487497;242;27846;-71
2021/05/07 07:58:38;;;;;;;10.00;7.70;;;6.80;99.90;;;;;;487492;242;27681;-71
2021/05/07 08:00:39;;;;;;;8.23;7.33;;;6.80;99.90;;;;;;487491;242;27672;-71
2021/05/07 08:02:40;;;;;;;12.37;7.97;;;6.80;99.90;;;;;;487508;242;28000;-71
2021/05/07 08:04:41;;;;;;;8.07;6.90;;;6.90;99.90;;;;;;487499;242;27985;-71
2021/05/07 08:06:42;;;;;;;8.40;7.23;;;6.80;99.90;;;;;;487498;242;28375;-71
2021/05/07 08:08:44;;;;;;;9.67;7.33;;;7.00;99.90;;;;;;487494;242;28251;-71
2021/05/07 08:10:45;;;;;;;8.20;7.17;;;7.00;99.90;;;;;;487491;242;28393;-72
2021/05/07 08:12:46;;;;;;;8.83;7.60;;;7.10;99.90;;;;;;487490;242;28297;-71
2021/05/07 08:14:47;;;;;;;7.93;6.53;;;7.20;99.90;;;;;;487494;242;28392;-71
2021/05/07 08:16:49;;;;;;;7.90;7.10;;;7.20;99.90;;;;;;487493;242;28636;-71
2021/05/07 08:18:50;;;;;;;8.20;7.30;;;7.30;99.90;;;;;;487511;242;27907;-71
2021/05/07 08:20:51;;;;;;;9.47;6.97;;;7.30;99.90;;;;;;487497;242;27910;-73
2021/05/07 08:22:52;;;;;;;8.07;7.00;;;7.30;99.90;;;;;;487498;242;27905;-71
2021/05/07 08:24:54;;;;;;;9.60;7.20;;;7.30;99.90;;;;;;487487;242;27780;-71
2021/05/07 08:26:55;;;;;;;8.00;6.93;;;7.50;99.90;;;;;;487498;242;27590;-71
2021/05/07 08:28:56;;;;;;;10.17;7.87;;;7.50;99.90;;;;;;487485;242;27779;-71
2021/05/07 08:30:57;;;;;;;8.40;7.43;;;7.70;99.90;;;;;;487488;242;27839;-73
2021/05/07 08:32:59;;;;;;;8.60;6.70;;;7.60;99.90;;;;;;487514;242;27846;-71
2021/05/07 08:35:00;;;;;;;7.20;6.37;;;7.50;99.90;;;;;;487481;242;27591;-71
2021/05/07 08:37:01;;;;;;;10.10;7.10;;;7.50;99.90;;;;;;487488;242;27902;-71
2021/05/07 08:39:02;;;;;;;7.03;6.43;;;7.40;99.90;;;;;;487498;242;27940;-71
2021/05/07 08:41:04;;;;;;;8.80;7.90;;;7.50;99.90;;;;;;487501;242;28304;-73
2021/05/07 08:43:05;;;;;;;7.27;6.57;;;7.60;99.90;;;;;;487468;242;28279;-71
2021/05/07 08:45:06;;;;;;;9.37;6.57;;;7.60;99.90;;;;;;487499;242;28245;-72
2021/05/07 08:47:07;;;;;;;8.03;7.10;;;7.80;99.90;;;;;;487496;242;28405;-71
2021/05/07 08:49:09;;;;;;;8.27;7.10;;;8.10;99.90;;;;;;487492;242;28364;-71
2021/05/07 08:51:10;;;;;;;12.23;7.00;;;8.10;99.90;;;;;;487482;242;28360;-72
2021/05/07 08:53:11;;;;;;;7.73;6.63;;;8.20;99.90;;;;;;487506;242;28011;-71
2021/05/07 08:55:12;;;;;;;7.60;6.80;;;8.20;99.90;;;;;;487500;242;27886;-72
2021/05/07 08:57:14;;;;;;;8.40;7.23;;;8.40;99.90;;;;;;487481;242;27586;-71
2021/05/07 08:59:15;;;;;;;7.90;5.80;;;8.40;99.90;;;;;;487484;242;27937;-72
2021/05/07 09:01:16;;;;;;;9.30;7.80;;;8.50;99.90;;;;;;487496;242;27798;-71
2021/05/07 09:03:18;;;;;;;7.00;6.30;;;8.40;99.90;;;;;;487484;242;27708;-71
2021/05/07 09:05:18;;;;;;;9.70;7.10;;;8.20;99.90;;;;;;487478;242;27716;-72
2021/05/07 09:07:20;;;;;;;7.13;6.33;;;8.00;99.90;;;;;;487493;242;27953;-71
2021/05/07 09:09:27;;;;;;;8.50;7.17;;;8.00;99.90;;;;;;487485;242;27681;-71
2021/05/07 09:11:25;;;;;;;8.17;6.63;;;8.00;99.90;;;;;;487556;241;27963;-72
2021/05/07 09:13:26;;;;;;;7.53;6.40;;;8.10;99.90;;;;;;487500;242;28296;-72
2021/05/07 09:15:27;;;;;;;9.27;7.00;;;8.40;99.90;;;;;;487485;242;28501;-72
2021/05/07 09:17:29;;;;;;;8.33;7.10;;;8.80;99.90;;;;;;487487;242;27869;-73
2021/05/07 09:19:30;;;;;;;8.10;6.63;;;9.00;99.90;;;;;;487490;242;27454;-72
2021/05/07 09:21:31;;;;;;;9.00;6.20;;;9.00;99.90;;;;;;487491;242;27734;-72
2021/05/07 09:23:32;;;;;;;8.30;6.77;;;8.90;99.90;;;;;;487507;242;27840;-71
2021/05/07 09:25:34;;;;;;;8.23;6.10;;;9.00;99.90;;;;;;487525;242;28060;-72
2021/05/07 09:27:35;;;;;;;8.93;6.57;;;8.70;99.90;;;;;;487496;242;27712;-73
2021/05/07 09:29:36;;;;;;;9.60;6.83;;;8.60;99.90;;;;;;487477;242;27836;-71
2021/05/07 09:31:37;;;;;;;9.83;6.13;;;8.50;99.90;;;;;;487482;242;27856;-72
2021/05/07 09:33:39;;;;;;;7.10;6.13;;;8.60;99.90;;;;;;487497;242;27704;-71
2021/05/07 09:35:40;;;;;;;8.10;5.90;;;8.60;99.90;;;;;;487488;242;27832;-72
2021/05/07 09:37:43;;;;;;;8.00;6.83;;;8.60;99.90;;;;;;487484;242;27843;-73
2021/05/07 09:39:42;;;;;;;7.80;6.57;;;8.40;99.90;;;;;;487511;242;27817;-71
2021/05/07 09:41:44;;;;;;;7.07;6.00;;;8.30;99.90;;;;;;487491;242;27607;-73
2021/05/07 09:43:45;;;;;;;7.23;5.67;;;8.30;99.90;;;;;;487494;242;27465;-72
2021/05/07 09:45:46;;;;;;;9.60;6.40;;;8.30;99.90;;;;;;487504;242;28392;-72
2021/05/07 09:47:48;;;;;;;6.80;6.10;;;8.20;99.90;;;;;;487468;242;28731;-71
2021/05/07 09:49:49;;;;;;;7.90;6.00;;;8.20;99.90;;;;;;487468;242;28462;-71
2021/05/07 09:51:50;;;;;;;8.60;6.43;;;8.20;99.90;;;;;;487485;242;28280;-72
2021/05/07 09:53:51;;;;;;;7.27;6.27;;;8.40;99.90;;;;;;487480;242;27828;-71
2021/05/07 09:55:53;;;;;;;5.97;5.30;;;8.60;99.90;;;;;;487485;242;27818;-72
2021/05/07 09:57:54;;;;;;;9.20;6.23;;;8.70;99.90;;;;;;487483;242;27704;-72
2021/05/07 09:59:55;;;;;;;7.13;5.93;;;8.80;99.90;;;;;;487472;242;27798;-71
2021/05/07 10:01:56;;;;;;;7.67;5.80;;;9.10;99.90;;;;;;487481;242;27850;-73
2021/05/07 10:03:58;;;;;;;6.60;5.00;;;9.30;99.90;;;;;;487491;242;27840;-72
2021/05/07 10:05:59;;;;;;;9.10;4.80;;;9.60;99.90;;;;;;487469;242;27928;-73
2021/05/07 10:08:00;;;;;;;5.60;4.13;;;9.80;99.90;;;;;;487477;242;27917;-72
2021/05/07 10:10:01;;;;;;;4.93;4.30;;;10.10;99.90;;;;;;487484;242;27817;-72
2021/05/07 10:12:02;;;;;;;6.40;5.40;;;9.90;99.90;;;;;;487484;242;27960;-74
2021/05/07 10:14:04;;;;;;;5.43;4.73;;;10.00;99.90;;;;;;487471;242;28071;-71
2021/05/07 10:16:05;;;;;;;5.50;4.50;;;9.90;99.90;;;;;;487478;242;28172;-71
2021/05/07 10:18:06;;;;;;;7.60;4.60;;;9.90;99.90;;;;;;487480;242;28174;-71
2021/05/07 10:20:07;;;;;;;6.37;4.90;;;9.70;99.90;;;;;;487476;242;28556;-72
2021/05/07 10:22:11;;;;;;;5.53;4.90;;;9.60;99.90;;;;;;487472;242;28713;-73
2021/05/07 10:24:10;;;;;;;4.90;4.40;;;9.60;99.90;;;;;;487498;242;28730;-71
2021/05/07 10:26:11;;;;;;;5.10;4.50;;;9.90;99.90;;;;;;487491;242;28519;-73
2021/05/07 10:28:12;;;;;;;6.53;4.77;;;9.90;99.90;;;;;;487481;242;28418;-71
2021/05/07 10:30:14;;;;;;;9.03;5.03;;;9.80;99.90;;;;;;487481;242;27988;-72
2021/05/07 10:32:15;;;;;;;5.70;3.93;;;9.60;99.90;;;;;;487465;242;28062;-75
2021/05/07 10:34:16;;;;;;;4.77;4.27;;;9.40;99.90;;;;;;487496;242;28171;-72
2021/05/07 10:36:17;;;;;;;4.90;4.23;;;8.70;99.90;;;;;;487472;242;28286;-72